Time;durP1;ratioP1;P1;durP2;ratioP2;P2;SDS_P1;SDS_P2;PMS_P1;PMS_P2;Temp;Humidity;BMP_temperature;BMP_pressure;BME280_temperature;BME280_humidity;BME280_pressure;Samples;Min_cycle;Max_cycle;Signal;HPM_P1;HPM_P2
2021/05/14 00:01:18;;;;;;;8.55;7.30;;;12.50;93.60;;;;;;5034469;28;20084;-63
2021/05/14 00:03:44;;;;;;;9.65;7.90;;;12.50;93.80;;;;;;5035131;28;20038;-63
2021/05/14 00:06:09;;;;;;;10.15;7.93;;;12.40;93.90;;;;;;5035796;28;20033;-64
2021/05/14 00:08:35;;;;;;;9.38;8.05;;;12.30;93.70;;;;;;5033844;28;20481;-64
2021/05/14 00:11:01;;;;;;;9.80;8.23;;;12.30;93.80;;;;;;5035505;28;20522;-64
2021/05/14 00:13:27;;;;;;;13.02;8.52;;;12.20;93.80;;;;;;5036355;28;20022;-64
2021/05/14 00:15:53;;;;;;;11.68;8.00;;;12.10;93.90;;;;;;5021776;28;20449;-64
2021/05/14 00:18:19;;;;;;;11.45;8.63;;;12.10;94.30;;;;;;5035364;28;20038;-64
2021/05/14 00:20:46;;;;;;;10.23;8.75;;;12.10;94.20;;;;;;5027276;28;20053;-63
2021/05/14 00:23:12;;;;;;;10.00;8.95;;;12.10;94.20;;;;;;5021149;28;20026;-64
2021/05/14 00:25:39;;;;;;;9.30;8.25;;;12.20;93.80;;;;;;5034739;28;20497;-63
2021/05/14 00:28:05;;;;;;;10.35;8.43;;;12.10;94.30;;;;;;5034765;28;20037;-63
2021/05/14 00:30:30;;;;;;;11.82;8.70;;;12.10;94.10;;;;;;5034406;28;20037;-63
2021/05/14 00:32:56;;;;;;;10.70;8.75;;;12.10;94.20;;;;;;5035115;28;20060;-63
2021/05/14 00:35:22;;;;;;;10.52;8.88;;;12.10;94.20;;;;;;5034302;28;20108;-63
2021/05/14 00:37:47;;;;;;;12.02;8.90;;;12.20;94.20;;;;;;5034732;28;20033;-63
2021/05/14 00:40:13;;;;;;;12.07;8.80;;;12.20;93.90;;;;;;5034451;28;20041;-63
2021/05/14 00:42:39;;;;;;;12.40;9.00;;;12.20;94.10;;;;;;5034914;28;20041;-63
2021/05/14 00:45:07;;;;;;;10.57;8.23;;;12.10;94.30;;;;;;5034061;28;20120;-63
2021/05/14 00:47:32;;;;;;;12.77;8.77;;;12.10;94.10;;;;;;5034898;28;20052;-64
2021/05/14 00:49:58;;;;;;;12.80;8.43;;;12.10;94.20;;;;;;5033859;28;20033;-63
2021/05/14 00:52:24;;;;;;;11.32;8.60;;;12.10;94.00;;;;;;5034940;28;20091;-63
2021/05/14 00:54:50;;;;;;;12.30;8.80;;;12.00;94.30;;;;;;5034337;28;20030;-63
2021/05/14 00:57:17;;;;;;;12.18;8.98;;;12.00;94.20;;;;;;5034830;28;20537;-64
2021/05/14 00:59:47;;;;;;;10.52;8.32;;;11.90;94.40;;;;;;5033574;28;20475;-63
2021/05/14 01:02:14;;;;;;;10.75;8.52;;;11.90;94.40;;;;;;5034508;28;20087;-63
2021/05/14 01:04:42;;;;;;;10.80;7.80;;;11.90;94.20;;;;;;5032654;28;20034;-63
2021/05/14 01:07:08;;;;;;;10.75;8.38;;;11.90;94.20;;;;;;5032071;28;20025;-64
2021/05/14 01:09:34;;;;;;;10.40;8.32;;;11.90;94.00;;;;;;5032837;28;20064;-63
2021/05/14 01:12:00;;;;;;;12.80;8.35;;;11.80;93.90;;;;;;5034131;28;20025;-64
2021/05/14 01:14:26;;;;;;;10.13;8.23;;;11.80;94.00;;;;;;5034116;28;20033;-63
2021/05/14 01:16:52;;;;;;;12.50;8.70;;;11.80;93.70;;;;;;5034088;28;20549;-63
2021/05/14 01:19:18;;;;;;;9.45;8.18;;;11.70;93.70;;;;;;5033831;28;20076;-64
2021/05/14 01:21:43;;;;;;;10.48;8.73;;;11.70;93.60;;;;;;5033690;28;20041;-64
2021/05/14 01:24:09;;;;;;;14.38;9.23;;;11.80;93.60;;;;;;5034088;28;20033;-63
2021/05/14 01:26:35;;;;;;;9.65;8.63;;;11.80;93.50;;;;;;5033667;28;20052;-63
2021/05/14 01:29:03;;;;;;;14.27;9.52;;;11.80;93.50;;;;;;5033830;28;20038;-63
2021/05/14 01:31:29;;;;;;;12.10;9.32;;;11.70;93.70;;;;;;5023596;28;20034;-63
2021/05/14 01:33:55;;;;;;;13.90;8.95;;;11.60;93.80;;;;;;5024241;28;20046;-63
2021/05/14 01:36:21;;;;;;;14.73;10.10;;;11.70;93.80;;;;;;5033325;28;20042;-62
2021/05/14 01:38:47;;;;;;;10.90;9.20;;;11.80;93.50;;;;;;5033729;28;20116;-63
2021/05/14 01:41:12;;;;;;;11.43;9.52;;;11.80;93.50;;;;;;5033363;28;20025;-63
2021/05/14 01:43:38;;;;;;;14.60;10.02;;;11.80;93.50;;;;;;5028153;28;20537;-63
2021/05/14 01:46:05;;;;;;;12.95;10.15;;;11.80;93.40;;;;;;5026153;28;20063;-63
2021/05/14 01:48:31;;;;;;;14.57;10.00;;;11.90;93.30;;;;;;5032882;28;20034;-63
2021/05/14 01:51:08;;;;;;;12.68;10.45;;;11.90;93.20;;;;;;5032436;28;20037;-62
2021/05/14 01:53:33;;;;;;;12.30;10.00;;;11.90;93.30;;;;;;5032954;28;20032;-64
2021/05/14 01:55:59;;;;;;;15.93;10.02;;;11.90;93.30;;;;;;5033398;28;20109;-65
2021/05/14 01:58:26;;;;;;;13.68;11.02;;;11.80;93.30;;;;;;5032962;28;20548;-63
2021/05/14 02:00:52;;;;;;;12.35;9.93;;;11.80;93.50;;;;;;5033470;28;20049;-63
2021/05/14 02:03:17;;;;;;;15.27;10.48;;;11.90;93.50;;;;;;5032737;28;20034;-63
2021/05/14 02:05:43;;;;;;;12.82;9.50;;;11.90;93.40;;;;;;5033479;28;20033;-63
2021/05/14 02:08:08;;;;;;;14.02;9.93;;;11.90;93.50;;;;;;5033037;28;20121;-63
2021/05/14 02:10:34;;;;;;;14.07;10.02;;;11.90;93.40;;;;;;5032578;28;20037;-63
2021/05/14 02:13:00;;;;;;;12.60;11.00;;;12.00;93.50;;;;;;5033279;28;20056;-64
2021/05/14 02:15:26;;;;;;;13.75;9.93;;;12.00;93.10;;;;;;5031388;28;20118;-63
2021/05/14 02:17:51;;;;;;;14.40;10.43;;;11.90;93.40;;;;;;5032640;28;20485;-63
2021/05/14 02:20:17;;;;;;;11.38;9.05;;;12.00;93.70;;;;;;5032722;28;20044;-63
2021/05/14 02:22:43;;;;;;;14.20;9.93;;;12.00;93.40;;;;;;5033091;28;20567;-63
2021/05/14 02:25:08;;;;;;;11.00;9.38;;;12.00;93.50;;;;;;5032287;28;20043;-64
2021/05/14 02:27:35;;;;;;;12.80;9.68;;;12.00;93.60;;;;;;5032968;28;20049;-63
2021/05/14 02:30:04;;;;;;;14.65;10.93;;;12.00;93.70;;;;;;5032125;28;20513;-63
2021/05/14 02:32:29;;;;;;;13.02;10.60;;;11.70;94.20;;;;;;5032820;28;20057;-64
2021/05/14 02:34:55;;;;;;;13.95;11.23;;;11.70;94.30;;;;;;5031848;28;20049;-64
2021/05/14 02:37:20;;;;;;;13.85;11.18;;;11.60;94.30;;;;;;5032621;28;20075;-63
2021/05/14 02:39:46;;;;;;;12.75;10.27;;;11.60;94.40;;;;;;5032033;28;20098;-63
2021/05/14 02:42:12;;;;;;;13.02;10.30;;;11.60;94.40;;;;;;5031548;28;20037;-64
2021/05/14 02:44:38;;;;;;;13.88;10.95;;;11.70;94.20;;;;;;5032078;28;20064;-63
2021/05/14 02:47:03;;;;;;;13.35;10.32;;;11.60;94.30;;;;;;5032119;28;20076;-63
2021/05/14 02:49:29;;;;;;;14.45;11.23;;;11.60;94.40;;;;;;5031773;28;20057;-63
2021/05/14 02:51:55;;;;;;;13.68;10.52;;;11.60;94.30;;;;;;5032215;28;20116;-64
2021/05/14 02:54:20;;;;;;;13.40;11.02;;;11.60;94.40;;;;;;5031902;28;20038;-63
2021/05/14 02:56:46;;;;;;;13.52;10.52;;;11.60;94.60;;;;;;5032149;28;20056;-63
2021/05/14 02:59:12;;;;;;;15.25;10.73;;;11.80;94.20;;;;;;5031870;28;20033;-63
2021/05/14 03:01:37;;;;;;;13.52;10.13;;;11.80;94.00;;;;;;5032031;28;20041;-63
2021/05/14 03:04:04;;;;;;;13.93;10.98;;;11.80;93.90;;;;;;5031851;28;20030;-64
2021/05/14 03:06:30;;;;;;;13.23;11.23;;;11.90;93.90;;;;;;5032281;28;20036;-62
2021/05/14 03:08:56;;;;;;;12.68;10.35;;;11.90;93.80;;;;;;5031314;28;20101;-62
2021/05/14 03:11:22;;;;;;;13.63;10.45;;;11.90;94.00;;;;;;5031927;28;20453;-63
2021/05/14 03:13:47;;;;;;;14.30;11.35;;;11.90;94.00;;;;;;5031914;28;20651;-64
2021/05/14 03:16:13;;;;;;;17.63;14.13;;;11.90;94.10;;;;;;5046707;28;20030;-63
2021/05/14 03:18:38;;;;;;;18.58;12.40;;;11.90;94.10;;;;;;5031765;28;20063;-63
2021/05/14 03:21:04;;;;;;;14.80;11.63;;;11.90;94.30;;;;;;5029112;28;20046;-64
2021/05/14 03:23:29;;;;;;;15.48;11.55;;;11.90;94.20;;;;;;5031584;28;20159;-63
2021/05/14 03:25:55;;;;;;;13.68;11.38;;;11.90;94.40;;;;;;5031636;28;20037;-63
2021/05/14 03:28:21;;;;;;;15.20;12.80;;;11.90;94.50;;;;;;5031328;28;20101;-63
2021/05/14 03:30:46;;;;;;;13.25;11.32;;;11.80;94.60;;;;;;5030992;28;20029;-63
2021/05/14 03:33:19;;;;;;;17.23;12.60;;;11.80;94.70;;;;;;5031284;28;20033;-65
2021/05/14 03:35:45;;;;;;;15.07;12.30;;;11.80;94.80;;;;;;5035285;28;20038;-63
2021/05/14 03:38:11;;;;;;;13.57;11.52;;;11.70;95.00;;;;;;5028693;28;20051;-64
2021/05/14 03:40:37;;;;;;;13.52;11.48;;;11.80;95.00;;;;;;5031406;28;20409;-63
2021/05/14 03:43:04;;;;;;;16.30;12.35;;;11.80;94.90;;;;;;5032147;28;20037;-62
2021/05/14 03:45:30;;;;;;;14.60;13.02;;;11.80;94.80;;;;;;5032529;28;20068;-64
2021/05/14 03:47:57;;;;;;;14.52;13.02;;;11.80;94.90;;;;;;5031990;28;20120;-63
2021/05/14 03:50:26;;;;;;;15.38;12.48;;;11.80;94.90;;;;;;5030753;28;20041;-64
2021/05/14 03:52:51;;;;;;;18.52;12.52;;;11.80;95.00;;;;;;5031478;28;20086;-64
2021/05/14 03:55:19;;;;;;;14.05;12.38;;;11.80;94.80;;;;;;5044260;28;20041;-63
2021/05/14 03:57:45;;;;;;;16.10;11.90;;;11.90;94.90;;;;;;5031004;28;20205;-63
2021/05/14 04:00:12;;;;;;;14.70;12.98;;;11.80;95.00;;;;;;5030894;28;20503;-65
2021/05/14 04:02:37;;;;;;;16.95;13.18;;;11.80;95.00;;;;;;5031320;28;20034;-64
2021/05/14 04:05:04;;;;;;;16.27;13.27;;;11.60;95.40;;;;;;5031229;28;20166;-64
2021/05/14 04:07:29;;;;;;;14.82;13.13;;;11.60;95.50;;;;;;5030893;28;20017;-63
2021/05/14 04:10:14;;;;;;;16.70;12.73;;;11.50;95.70;;;;;;5030427;28;20037;-63
2021/05/14 04:15:08;;;;;;;21.05;13.60;;;11.40;96.10;;;;;;5030811;28;20456;-64
2021/05/14 04:17:34;;;;;;;19.98;13.98;;;11.40;96.20;;;;;;5030666;28;20029;-63
2021/05/14 04:20:00;;;;;;;18.08;14.05;;;11.20;96.60;;;;;;5030774;28;20430;-63
2021/05/14 04:22:27;;;;;;;19.77;13.95;;;11.40;96.30;;;;;;5030818;28;20036;-63
2021/05/14 04:24:53;;;;;;;19.80;13.82;;;11.40;96.20;;;;;;5030871;28;20492;-64
2021/05/14 04:27:19;;;;;;;19.67;13.98;;;11.50;96.10;;;;;;5030962;28;20041;-63
2021/05/14 04:29:45;;;;;;;16.85;12.75;;;11.50;96.00;;;;;;5030867;28;20059;-63
2021/05/14 04:32:10;;;;;;;16.48;12.68;;;11.60;95.90;;;;;;5030617;28;20440;-63
2021/05/14 04:34:36;;;;;;;13.32;11.55;;;11.70;95.60;;;;;;5031122;28;20060;-64
2021/05/14 04:37:02;;;;;;;18.30;13.77;;;11.80;95.50;;;;;;5037933;28;20072;-63
2021/05/14 04:39:28;;;;;;;16.65;12.93;;;11.90;95.40;;;;;;5030842;28;20037;-63
2021/05/14 04:41:54;;;;;;;16.58;13.25;;;12.00;95.40;;;;;;5029446;28;20040;-63
2021/05/14 04:44:19;;;;;;;18.70;12.60;;;12.10;95.10;;;;;;5023941;28;20057;-63
2021/05/14 04:46:45;;;;;;;13.73;10.73;;;12.20;94.60;;;;;;5034389;28;20128;-64
2021/05/14 04:49:11;;;;;;;15.65;11.23;;;12.20;94.50;;;;;;5034307;28;20041;-63
2021/05/14 04:51:36;;;;;;;15.23;11.82;;;12.30;94.30;;;;;;5034390;28;20037;-64
2021/05/14 04:54:02;;;;;;;16.10;11.43;;;12.40;94.20;;;;;;5034107;28;20029;-63
2021/05/14 04:56:28;;;;;;;12.98;10.50;;;12.30;94.30;;;;;;5033869;28;20033;-63
2021/05/14 04:58:54;;;;;;;13.68;10.95;;;12.40;94.30;;;;;;5033035;28;20102;-63
2021/05/14 05:01:19;;;;;;;14.27;11.65;;;12.50;94.10;;;;;;5028108;28;20045;-63
2021/05/14 05:03:50;;;;;;;17.80;12.23;;;12.40;94.20;;;;;;5028059;28;20045;-64
2021/05/14 05:06:16;;;;;;;18.05;11.82;;;12.30;94.70;;;;;;5030256;28;20037;-63
2021/05/14 05:08:41;;;;;;;16.92;13.68;;;12.10;95.30;;;;;;5027368;28;20064;-64
2021/05/14 05:11:07;;;;;;;14.00;11.23;;;12.00;95.30;;;;;;5017148;28;20490;-63
2021/05/14 05:13:33;;;;;;;16.02;12.35;;;12.10;95.00;;;;;;5024330;28;20030;-64
2021/05/14 05:15:59;;;;;;;15.15;12.13;;;12.30;94.80;;;;;;5033530;28;20539;-63
2021/05/14 05:18:24;;;;;;;17.50;12.75;;;12.50;94.10;;;;;;5034042;28;20017;-63
2021/05/14 05:20:50;;;;;;;16.30;11.45;;;12.40;94.20;;;;;;5026513;28;20045;-63
2021/05/14 05:23:15;;;;;;;14.48;11.25;;;12.50;94.20;;;;;;5034032;28;20025;-63
2021/05/14 05:25:41;;;;;;;18.45;14.07;;;12.50;94.30;;;;;;5049144;28;20091;-63
2021/05/14 05:28:06;;;;;;;17.70;12.80;;;12.60;94.30;;;;;;5033348;28;20107;-64
2021/05/14 05:30:32;;;;;;;17.38;11.93;;;12.70;94.00;;;;;;5034371;28;20068;-64
2021/05/14 05:32:58;;;;;;;13.80;11.68;;;12.70;93.70;;;;;;5034047;28;20029;-64
2021/05/14 05:35:24;;;;;;;16.60;12.20;;;12.80;93.90;;;;;;5033429;28;20045;-65
2021/05/14 05:37:49;;;;;;;20.17;12.93;;;12.80;93.80;;;;;;5033706;28;20036;-63
2021/05/14 05:40:15;;;;;;;15.75;11.73;;;12.70;93.70;;;;;;5032356;28;20045;-64
2021/05/14 05:42:41;;;;;;;16.58;12.40;;;12.60;93.90;;;;;;5032075;28;20496;-64
2021/05/14 05:45:07;;;;;;;17.33;12.70;;;12.60;94.00;;;;;;5033141;28;20377;-64
2021/05/14 05:47:34;;;;;;;16.08;12.68;;;12.60;94.20;;;;;;5033546;28;20485;-64
2021/05/14 05:50:00;;;;;;;16.80;13.05;;;12.70;94.10;;;;;;5033132;28;20037;-65
2021/05/14 05:52:26;;;;;;;17.55;12.52;;;12.70;93.80;;;;;;5033843;28;20044;-65
2021/05/14 05:54:51;;;;;;;15.25;13.57;;;12.90;93.70;;;;;;5031901;28;20497;-63
2021/05/14 05:57:17;;;;;;;16.05;11.93;;;13.00;93.30;;;;;;5033387;28;20079;-64
2021/05/14 05:59:42;;;;;;;17.90;13.60;;;13.00;93.30;;;;;;5022799;28;20049;-64
2021/05/14 06:02:08;;;;;;;16.75;12.93;;;13.00;93.40;;;;;;5029683;28;20485;-64
2021/05/14 06:04:34;;;;;;;15.80;11.85;;;12.90;94.10;;;;;;5032967;28;20055;-63
2021/05/14 06:07:00;;;;;;;13.55;12.15;;;12.90;94.10;;;;;;5030847;28;20033;-64
2021/05/14 06:09:26;;;;;;;17.17;12.30;;;13.00;94.10;;;;;;5032558;28;20025;-64
2021/05/14 06:11:52;;;;;;;18.45;12.70;;;12.90;94.00;;;;;;5032969;28;20338;-64
2021/05/14 06:14:18;;;;;;;17.17;12.23;;;12.80;94.30;;;;;;5032794;28;20037;-64
2021/05/14 06:16:44;;;;;;;15.48;11.82;;;12.90;94.30;;;;;;5033039;28;20388;-64
2021/05/14 06:19:21;;;;;;;14.07;11.50;;;12.90;94.40;;;;;;5032707;28;20096;-65
2021/05/14 06:21:48;;;;;;;16.88;12.25;;;12.90;94.40;;;;;;5026625;28;20036;-65
2021/05/14 06:24:15;;;;;;;16.77;12.18;;;12.80;94.10;;;;;;5032455;28;20125;-64
2021/05/14 06:26:42;;;;;;;17.33;12.40;;;12.90;94.20;;;;;;5032233;28;20037;-64
2021/05/14 06:29:08;;;;;;;15.30;11.88;;;12.90;94.00;;;;;;5032529;28;20389;-65
2021/05/14 06:31:34;;;;;;;18.95;12.88;;;13.00;93.80;;;;;;5029493;28;20030;-65
2021/05/14 06:34:00;;;;;;;14.00;11.73;;;12.90;94.20;;;;;;5032112;28;20041;-65
2021/05/14 06:36:26;;;;;;;17.77;11.57;;;13.00;94.20;;;;;;5032644;28;20077;-65
2021/05/14 06:38:52;;;;;;;20.48;13.43;;;13.30;93.70;;;;;;5032923;28;20041;-64
2021/05/14 06:41:17;;;;;;;16.92;12.48;;;13.30;93.60;;;;;;5031452;28;20160;-65
2021/05/14 06:43:43;;;;;;;16.40;11.63;;;13.30;93.80;;;;;;5014812;28;20050;-64
2021/05/14 06:46:09;;;;;;;15.05;12.00;;;13.50;93.50;;;;;;5013037;28;20040;-64
2021/05/14 06:48:35;;;;;;;17.25;12.45;;;13.50;93.50;;;;;;5027919;28;20058;-64
2021/05/14 06:51:01;;;;;;;17.17;11.90;;;13.70;93.30;;;;;;5018012;28;20069;-64
2021/05/14 06:53:26;;;;;;;16.05;12.10;;;13.80;92.60;;;;;;5014431;28;20462;-64
2021/05/14 06:55:53;;;;;;;18.77;12.50;;;13.70;92.40;;;;;;5016185;28;20450;-64
2021/05/14 06:58:19;;;;;;;15.73;11.85;;;13.60;92.20;;;;;;5013966;28;20042;-63
2021/05/14 07:00:44;;;;;;;14.25;11.30;;;13.50;92.40;;;;;;5026786;28;20038;-66
2021/05/14 07:03:10;;;;;;;16.45;12.02;;;13.70;92.30;;;;;;5014233;28;20026;-62
2021/05/14 07:05:36;;;;;;;15.13;11.93;;;14.00;91.80;;;;;;5014596;28;20397;-65
2021/05/14 07:08:02;;;;;;;17.08;12.25;;;14.00;91.80;;;;;;5012303;28;20037;-65
2021/05/14 07:10:28;;;;;;;14.52;11.93;;;14.10;91.80;;;;;;5017649;28;20516;-65
2021/05/14 07:12:54;;;;;;;14.63;11.82;;;13.90;91.90;;;;;;5011580;28;20057;-64
2021/05/14 07:15:20;;;;;;;16.13;12.50;;;13.80;91.90;;;;;;5014558;28;20036;-64
2021/05/14 07:17:46;;;;;;;14.68;12.05;;;13.80;91.70;;;;;;5013904;28;20445;-65
2021/05/14 07:20:12;;;;;;;14.40;12.10;;;13.80;91.60;;;;;;5012441;28;20420;-65
2021/05/14 07:22:40;;;;;;;14.98;11.98;;;13.70;91.70;;;;;;5016735;28;20034;-66
2021/05/14 07:25:07;;;;;;;12.77;10.43;;;14.10;91.40;;;;;;5014964;28;20367;-65
2021/05/14 07:27:33;;;;;;;14.65;11.48;;;14.20;91.30;;;;;;5030574;28;20103;-65
2021/05/14 07:29:59;;;;;;;15.07;11.38;;;14.40;90.60;;;;;;5011575;28;20034;-65
2021/05/14 07:32:25;;;;;;;16.02;11.00;;;14.60;90.30;;;;;;5011598;28;20489;-65
2021/05/14 07:34:52;;;;;;;14.18;11.40;;;14.50;90.60;;;;;;5012153;28;20032;-66
2021/05/14 07:37:18;;;;;;;17.08;11.68;;;14.50;90.80;;;;;;5011622;28;20085;-64
2021/05/14 07:39:45;;;;;;;15.60;10.95;;;14.60;90.30;;;;;;5030244;28;20037;-65
2021/05/14 07:42:11;;;;;;;17.48;12.10;;;14.50;90.40;;;;;;5011260;28;20482;-64
2021/05/14 07:44:37;;;;;;;14.00;11.52;;;14.30;90.90;;;;;;5015290;28;20168;-66
2021/05/14 07:47:03;;;;;;;13.18;11.68;;;14.50;90.70;;;;;;5017856;28;20479;-64
2021/05/14 07:49:29;;;;;;;13.65;11.52;;;14.70;90.20;;;;;;5026652;28;20045;-65
2021/05/14 07:51:54;;;;;;;12.52;10.82;;;14.40;90.60;;;;;;5029970;28;20068;-65
2021/05/14 07:54:20;;;;;;;12.85;10.70;;;14.50;89.70;;;;;;5030229;28;20073;-65
2021/05/14 07:56:46;;;;;;;13.15;10.35;;;14.60;89.10;;;;;;5030780;28;20041;-64
2021/05/14 07:59:11;;;;;;;12.77;10.00;;;14.80;88.20;;;;;;5029868;28;20030;-64
2021/05/14 08:01:38;;;;;;;12.23;10.85;;;14.80;88.90;;;;;;5024177;28;20044;-65
2021/05/14 08:04:07;;;;;;;13.73;10.90;;;14.90;89.50;;;;;;5029291;28;20064;-64
2021/05/14 08:06:33;;;;;;;12.70;10.88;;;15.00;89.70;;;;;;5030169;28;20025;-64
2021/05/14 08:09:02;;;;;;;12.05;10.52;;;14.80;88.60;;;;;;5020850;28;20666;-64
2021/05/14 08:11:28;;;;;;;14.75;9.93;;;14.80;89.80;;;;;;5037985;28;20116;-65
2021/05/14 08:13:53;;;;;;;12.50;10.65;;;15.00;89.40;;;;;;5028104;28;20151;-66
2021/05/14 08:16:19;;;;;;;11.30;10.20;;;15.10;90.00;;;;;;5027197;28;20061;-64
2021/05/14 08:18:44;;;;;;;15.65;10.40;;;15.10;88.40;;;;;;5025104;28;20064;-64
2021/05/14 08:21:10;;;;;;;14.07;10.18;;;15.10;87.90;;;;;;5031561;28;20481;-65
2021/05/14 08:23:35;;;;;;;10.50;9.50;;;14.90;87.00;;;;;;5033016;28;20076;-65
2021/05/14 08:26:01;;;;;;;16.00;10.38;;;14.80;87.80;;;;;;5026181;28;20034;-64
2021/05/14 08:28:27;;;;;;;12.45;10.10;;;15.10;86.30;;;;;;5028808;28;20048;-65
2021/05/14 08:30:52;;;;;;;14.25;10.05;;;15.20;87.30;;;;;;5035024;28;20053;-65
2021/05/14 08:33:18;;;;;;;12.45;10.45;;;15.30;87.00;;;;;;5035605;28;20051;-64
2021/05/14 08:35:44;;;;;;;12.35;9.20;;;15.20;86.80;;;;;;5034639;28;20029;-65
2021/05/14 08:38:11;;;;;;;10.80;9.48;;;15.20;86.50;;;;;;5035068;28;20500;-65
2021/05/14 08:40:38;;;;;;;12.73;8.95;;;15.50;85.40;;;;;;5034235;28;20120;-65
2021/05/14 08:43:04;;;;;;;13.93;9.25;;;15.70;85.00;;;;;;5035549;28;20030;-64
2021/05/14 08:45:30;;;;;;;11.45;8.55;;;15.70;82.90;;;;;;5034303;28;20107;-64
2021/05/14 08:47:57;;;;;;;11.88;10.07;;;15.80;83.40;;;;;;5025469;28;20088;-63
2021/05/14 08:50:26;;;;;;;14.05;10.27;;;15.90;82.90;;;;;;5021260;28;20033;-64
2021/05/14 08:52:52;;;;;;;10.68;9.38;;;15.90;82.60;;;;;;5026734;28;20060;-64
2021/05/14 08:55:21;;;;;;;10.68;8.93;;;15.90;82.50;;;;;;5022820;28;20473;-65
2021/05/14 08:57:46;;;;;;;10.88;8.73;;;16.00;82.80;;;;;;5034804;28;20140;-64
2021/05/14 09:00:13;;;;;;;10.13;8.35;;;16.20;81.30;;;;;;5024057;28;20124;-65
2021/05/14 09:02:38;;;;;;;10.13;8.73;;;16.10;81.20;;;;;;5034487;28;20037;-65
2021/05/14 09:05:28;;;;;;;10.98;9.02;;;15.90;81.20;;;;;;5040175;28;20041;-64
2021/05/14 09:07:58;;;;;;;10.38;8.77;;;15.90;82.00;;;;;;5033098;28;20025;-64
2021/05/14 09:10:25;;;;;;;10.07;8.70;;;16.00;82.20;;;;;;5019391;28;20045;-64
2021/05/14 09:12:51;;;;;;;11.95;9.23;;;15.80;81.30;;;;;;5024253;28;20109;-65
2021/05/14 09:15:19;;;;;;;13.60;8.63;;;15.70;81.60;;;;;;5026616;28;20155;-65
2021/05/14 09:18:10;;;;;;;11.43;8.02;;;15.40;83.10;;;;;;5027948;28;20568;-64
2021/05/14 09:20:57;;;;;;;9.82;7.75;;;15.20;84.50;;;;;;5022372;28;20042;-65
2021/05/14 09:23:24;;;;;;;11.10;8.55;;;15.40;84.00;;;;;;5025532;28;20034;-64
2021/05/14 09:25:53;;;;;;;11.52;9.02;;;15.50;84.00;;;;;;5027786;28;20513;-64
2021/05/14 09:28:26;;;;;;;12.15;8.80;;;15.50;83.70;;;;;;5033365;28;20094;-65
2021/05/14 09:31:05;;;;;;;10.82;8.23;;;15.50;83.60;;;;;;5033783;28;20038;-64
2021/05/14 09:33:32;;;;;;;9.52;8.00;;;15.50;83.40;;;;;;5033819;28;20037;-64
2021/05/14 09:36:06;;;;;;;15.63;7.88;;;15.40;84.00;;;;;;5034061;28;20057;-65
2021/05/14 09:38:50;;;;;;;9.80;7.82;;;15.40;84.30;;;;;;5029549;28;20041;-64
2021/05/14 09:41:38;;;;;;;9.50;8.53;;;15.30;85.60;;;;;;5014481;28;20038;-65
2021/05/14 09:44:05;;;;;;;9.50;7.88;;;15.10;86.90;;;;;;5016119;28;20113;-64
2021/05/14 09:46:37;;;;;;;9.20;8.07;;;15.00;88.20;;;;;;5013749;28;20026;-66
2021/05/14 09:49:08;;;;;;;13.10;8.80;;;14.90;88.50;;;;;;5016355;28;20537;-65
2021/05/14 09:51:44;;;;;;;11.32;9.00;;;14.80;89.30;;;;;;5024472;28;20069;-64
2021/05/14 09:54:28;;;;;;;14.13;10.80;;;14.80;90.20;;;;;;5011797;28;20057;-66
2021/05/14 09:59:53;;;;;;;11.90;9.95;;;14.30;91.80;;;;;;5012032;28;20026;-66
2021/05/14 10:02:34;;;;;;;11.98;10.10;;;14.30;92.00;;;;;;5028850;28;20080;-65
2021/05/14 10:05:03;;;;;;;14.10;11.07;;;14.40;91.70;;;;;;5014609;28;20072;-64
2021/05/14 10:07:31;;;;;;;14.98;11.07;;;14.30;91.60;;;;;;5017276;28;20517;-65
2021/05/14 10:10:02;;;;;;;12.50;10.45;;;14.40;91.40;;;;;;5027155;28;20545;-64
2021/05/14 10:12:28;;;;;;;16.40;10.80;;;14.30;91.60;;;;;;5014572;28;20478;-64
2021/05/14 10:14:58;;;;;;;12.55;10.93;;;14.30;91.60;;;;;;5012152;28;20466;-65
2021/05/14 10:17:25;;;;;;;14.27;11.25;;;14.40;92.00;;;;;;5028478;28;20103;-65
2021/05/14 10:19:51;;;;;;;12.95;11.15;;;14.40;91.50;;;;;;5012168;28;20026;-64
2021/05/14 10:22:18;;;;;;;13.30;11.88;;;14.50;91.90;;;;;;5014363;28;20033;-65
2021/05/14 10:24:46;;;;;;;14.45;12.30;;;14.30;91.90;;;;;;5015059;28;20478;-65
2021/05/14 10:27:23;;;;;;;14.75;11.68;;;14.30;91.90;;;;;;5012995;28;20046;-64
2021/05/14 10:29:52;;;;;;;21.13;18.15;;;14.40;91.80;;;;;;5011658;28;20034;-64
2021/05/14 10:32:43;;;;;;;24.17;17.77;;;14.60;91.80;;;;;;5016225;28;20046;-66
2021/05/14 10:35:11;;;;;;;15.70;13.13;;;14.60;91.60;;;;;;5014096;28;20034;-64
2021/05/14 10:37:45;;;;;;;15.13;13.02;;;14.60;91.50;;;;;;5026019;28;20052;-65
2021/05/14 10:40:30;;;;;;;15.93;13.80;;;14.60;91.70;;;;;;5011627;28;20037;-64
2021/05/14 10:43:05;;;;;;;17.35;14.30;;;14.40;91.80;;;;;;5026645;28;20120;-65
2021/05/14 10:45:44;;;;;;;15.95;13.10;;;14.60;91.90;;;;;;5016993;28;20113;-67
2021/05/14 10:48:18;;;;;;;16.58;13.85;;;14.80;91.70;;;;;;5018507;28;20037;-67
2021/05/14 10:51:01;;;;;;;17.58;13.38;;;14.80;91.70;;;;;;5013743;28;20661;-66
2021/05/14 10:53:53;;;;;;;14.30;11.23;;;14.80;91.40;;;;;;5015711;28;20061;-64
2021/05/14 10:56:26;;;;;;;18.73;15.10;;;15.00;91.20;;;;;;5019112;28;20022;-65
2021/05/14 10:59:07;;;;;;;27.35;24.42;;;15.20;91.20;;;;;;5018160;28;20123;-64
2021/05/14 11:01:40;;;;;;;18.83;16.83;;;15.30;90.80;;;;;;5017742;28;20037;-65
2021/05/14 11:04:11;;;;;;;17.67;13.80;;;15.50;90.60;;;;;;5012495;28;20038;-65
2021/05/14 11:06:48;;;;;;;14.60;12.68;;;15.60;90.00;;;;;;5011908;28;20040;-64
2021/05/14 11:09:15;;;;;;;16.20;14.48;;;15.70;89.90;;;;;;5011941;28;20057;-65
2021/05/14 11:12:03;;;;;;;15.55;13.85;;;15.60;90.00;;;;;;5015888;28;20128;-64
2021/05/14 11:14:41;;;;;;;17.85;14.93;;;15.60;90.70;;;;;;5011893;28;20026;-65
2021/05/14 11:17:14;;;;;;;16.83;14.15;;;15.80;90.40;;;;;;5025326;28;20075;-66
2021/05/14 11:19:48;;;;;;;15.13;12.95;;;15.70;90.40;;;;;;5026047;28;20022;-65
2021/05/14 11:22:22;;;;;;;19.10;14.52;;;15.80;90.40;;;;;;5027940;28;20037;-65
2021/05/14 11:25:21;;;;;;;14.65;13.20;;;15.80;90.10;;;;;;5033247;28;20029;-64
2021/05/14 11:27:51;;;;;;;15.80;13.32;;;16.00;89.00;;;;;;5029128;28;20473;-64
2021/05/14 11:30:17;;;;;;;13.45;12.18;;;16.10;89.00;;;;;;5031411;28;20029;-64
2021/05/14 11:32:44;;;;;;;15.07;13.50;;;16.30;88.20;;;;;;5033667;28;20026;-65
2021/05/14 11:35:21;;;;;;;19.92;15.85;;;16.30;87.90;;;;;;5038556;28;20030;-65
2021/05/14 11:38:02;;;;;;;16.63;14.50;;;16.60;86.60;;;;;;5031186;28;20104;-65
2021/05/14 11:40:29;;;;;;;17.48;14.70;;;16.50;86.30;;;;;;5031229;28;20040;-65
2021/05/14 11:43:01;;;;;;;16.42;14.35;;;16.50;86.40;;;;;;5027845;28;20558;-65
2021/05/14 11:45:36;;;;;;;16.58;14.30;;;16.70;86.50;;;;;;5030599;28;20425;-65
2021/05/14 11:48:08;;;;;;;;;;;16.70;86.70;;;;;;5041413;28;20025;-64
2021/05/14 11:50:39;;;;;;;17.17;15.40;;;16.80;84.90;;;;;;5029595;28;20296;-65
2021/05/14 11:53:07;;;;;;;16.02;14.50;;;16.80;85.20;;;;;;5031107;28;20025;-65
2021/05/14 11:55:35;;;;;;;15.30;13.85;;;16.70;84.70;;;;;;5029436;28;20045;-66
2021/05/14 11:58:01;;;;;;;15.32;13.77;;;16.60;84.80;;;;;;5031323;28;20108;-64
2021/05/14 12:00:27;;;;;;;17.00;15.25;;;16.70;84.90;;;;;;5030756;28;20164;-65
2021/05/14 12:02:53;;;;;;;16.90;14.68;;;16.60;84.50;;;;;;5030972;28;20163;-65
2021/05/14 12:05:21;;;;;;;15.90;14.35;;;16.70;84.30;;;;;;5030494;28;20037;-64
2021/05/14 12:07:47;;;;;;;37.22;26.33;;;16.80;84.40;;;;;;5031475;28;20037;-65
2021/05/14 12:10:15;;;;;;;19.48;16.10;;;16.70;84.80;;;;;;5030294;28;20052;-65
2021/05/14 12:12:44;;;;;;;16.35;14.18;;;16.80;84.10;;;;;;5031591;28;20118;-65
2021/05/14 12:15:15;;;;;;;18.50;13.73;;;16.80;83.90;;;;;;5032496;28;20033;-64
2021/05/14 12:17:42;;;;;;;17.13;15.32;;;16.80;84.10;;;;;;5030868;28;20025;-64
2021/05/14 12:20:31;;;;;;;16.20;14.07;;;16.70;84.10;;;;;;5023207;28;20041;-64
2021/05/14 12:23:03;;;;;;;16.05;12.93;;;16.70;84.50;;;;;;5030817;28;20045;-64
2021/05/14 12:25:40;;;;;;;14.98;12.85;;;16.40;83.50;;;;;;5030253;28;20037;-65
2021/05/14 12:28:25;;;;;;;15.30;13.73;;;15.90;81.10;;;;;;5029134;28;20033;-65
2021/05/14 12:30:52;;;;;;;14.70;13.13;;;15.70;81.30;;;;;;5023844;28;20037;-63
2021/05/14 12:33:18;;;;;;;13.90;12.45;;;15.60;82.20;;;;;;5030614;28;20477;-64
2021/05/14 12:36:04;;;;;;;14.32;12.80;;;15.70;82.80;;;;;;5029698;28;20052;-63
2021/05/14 12:38:47;;;;;;;18.60;16.13;;;15.80;82.80;;;;;;5028788;28;20055;-65
2021/05/14 12:41:25;;;;;;;15.33;13.80;;;15.70;84.40;;;;;;5030955;28;20033;-65